Time;durP1;ratioP1;P1;durP2;ratioP2;P2;SDS_P1;SDS_P2;PMS_P1;PMS_P2;Temp;Humidity;BMP_temperature;BMP_pressure;BME280_temperature;BME280_humidity;BME280_pressure;Samples;Min_cycle;Max_cycle;Signal;HPM_P1;HPM_P2
2024/01/11 00:00:49;;;;;;;29.75;17.55;;;;;;;;;;5002606;28;20176;-79
2024/01/11 00:03:16;;;;;;;37.47;18.87;;;;;;;;;;5002974;28;20551;-80
2024/01/11 00:05:41;;;;;;;33.60;17.35;;;;;;;;;;5018155;28;20531;-79
2024/01/11 00:08:08;;;;;;;32.45;17.05;;;;;;;;;;5014211;28;20195;-79
2024/01/11 00:10:34;;;;;;;38.33;18.27;;;;;;;;;;5001541;28;20176;-80
2024/01/11 00:13:00;;;;;;;33.00;18.02;;;;;;;;;;5003897;28;20206;-79
2024/01/11 00:15:25;;;;;;;34.30;17.88;;;;;;;;;;5003436;28;20186;-78
2024/01/11 00:17:51;;;;;;;36.45;18.15;;;;;;;;;;5003519;28;20215;-79
2024/01/11 00:20:17;;;;;;;38.03;18.70;;;;;;;;;;5004474;28;20207;-80
2024/01/11 00:22:43;;;;;;;33.20;17.85;;;;;;;;;;5003568;28;20171;-80
2024/01/11 00:25:09;;;;;;;35.07;19.17;;;;;;;;;;5002176;28;20210;-79
2024/01/11 00:27:35;;;;;;;40.13;17.83;;;;;;;;;;5002747;28;20454;-79
2024/01/11 00:30:01;;;;;;;36.67;18.25;;;;;;;;;;5003099;28;20418;-79
2024/01/11 00:32:27;;;;;;;40.53;19.83;;;;;;;;;;5003247;28;20261;-79
2024/01/11 00:34:53;;;;;;;36.83;18.93;;;;;;;;;;5011404;28;20191;-79
2024/01/11 00:37:19;;;;;;;32.40;17.58;;;;;;;;;;5023762;28;20402;-78
2024/01/11 00:39:45;;;;;;;35.75;18.83;;;;;;;;;;5022358;28;20201;-79
2024/01/11 00:42:11;;;;;;;41.72;21.10;;;;;;;;;;5022793;28;20175;-78
2024/01/11 00:44:37;;;;;;;38.83;19.25;;;;;;;;;;5022736;28;20218;-79
2024/01/11 00:47:03;;;;;;;39.30;18.42;;;;;;;;;;5021010;28;20228;-79
2024/01/11 00:49:29;;;;;;;40.05;19.63;;;;;;;;;;5021760;28;20171;-79
2024/01/11 00:51:55;;;;;;;34.70;18.60;;;;;;;;;;4990160;28;20215;-80
2024/01/11 00:54:21;;;;;;;38.87;18.00;;;;;;;;;;4983124;28;20172;-79
2024/01/11 00:56:48;;;;;;;32.67;18.50;;;;;;;;;;4992341;28;20641;-81
2024/01/11 00:59:14;;;;;;;42.90;24.00;;;;;;;;;;5000403;28;20755;-79
2024/01/11 01:01:40;;;;;;;39.83;22.33;;;;;;;;;;4991409;28;20247;-79
2024/01/11 01:04:06;;;;;;;36.53;19.95;;;;;;;;;;4984003;28;20237;-78
2024/01/11 01:06:32;;;;;;;32.42;18.67;;;;;;;;;;4984623;28;20516;-81
2024/01/11 01:08:57;;;;;;;38.83;19.70;;;;;;;;;;4984172;28;20181;-79
2024/01/11 01:11:23;;;;;;;34.67;19.27;;;;;;;;;;5022339;28;20394;-79
2024/01/11 01:13:49;;;;;;;45.43;19.73;;;;;;;;;;5022517;28;20406;-79
2024/01/11 01:16:17;;;;;;;36.80;18.65;;;;;;;;;;5024727;28;20421;-78
2024/01/11 01:18:43;;;;;;;42.08;22.13;;;;;;;;;;5027615;28;20174;-79
2024/01/11 01:21:09;;;;;;;33.67;19.23;;;;;;;;;;5024418;28;20182;-79
2024/01/11 01:23:35;;;;;;;40.70;19.05;;;;;;;;;;5012257;28;20179;-78
2024/01/11 01:26:01;;;;;;;37.20;18.77;;;;;;;;;;5007158;28;20208;-78
2024/01/11 01:28:27;;;;;;;33.43;17.90;;;;;;;;;;5007002;28;20402;-78
2024/01/11 01:30:53;;;;;;;33.90;19.52;;;;;;;;;;5005978;28;20465;-78
2024/01/11 01:33:19;;;;;;;39.07;19.60;;;;;;;;;;5005157;28;20243;-79
2024/01/11 01:35:45;;;;;;;32.30;18.67;;;;;;;;;;5005669;28;20407;-78
2024/01/11 01:38:12;;;;;;;35.38;18.70;;;;;;;;;;5006359;28;20177;-78
2024/01/11 01:40:38;;;;;;;36.80;19.73;;;;;;;;;;5005662;28;20265;-86
2024/01/11 01:43:08;;;;;;;38.10;18.33;;;;;;;;;;5004838;28;20280;-80
2024/01/11 01:45:34;;;;;;;36.03;17.23;;;;;;;;;;5005626;28;20730;-78
2024/01/11 01:48:00;;;;;;;35.53;17.73;;;;;;;;;;5014397;28;20627;-79
2024/01/11 01:50:26;;;;;;;34.90;16.98;;;;;;;;;;5025877;28;20264;-78
2024/01/11 01:52:52;;;;;;;33.67;17.27;;;;;;;;;;5025409;28;20184;-78
2024/01/11 01:55:19;;;;;;;37.35;19.42;;;;;;;;;;5026750;28;20550;-78
2024/01/11 01:57:46;;;;;;;45.78;21.10;;;;;;;;;;5025956;28;20174;-78
2024/01/11 02:00:13;;;;;;;30.50;18.98;;;;;;;;;;5026001;28;20167;-79
2024/01/11 02:02:40;;;;;;;36.28;19.52;;;;;;;;;;5026352;28;20177;-79
2024/01/11 02:05:07;;;;;;;39.20;18.67;;;;;;;;;;5025240;28;20649;-78
2024/01/11 02:07:33;;;;;;;44.03;18.55;;;;;;;;;;5026072;28;20179;-78
2024/01/11 02:09:59;;;;;;;38.95;20.15;;;;;;;;;;5025110;28;20201;-78
2024/01/11 02:12:26;;;;;;;39.70;20.50;;;;;;;;;;5026093;28;20186;-78
2024/01/11 02:14:53;;;;;;;33.20;18.25;;;;;;;;;;5009526;28;20189;-79
2024/01/11 02:17:20;;;;;;;42.30;20.40;;;;;;;;;;5005116;28;20171;-78
2024/01/11 02:19:46;;;;;;;43.92;20.25;;;;;;;;;;5005902;28;20236;-78
2024/01/11 02:22:18;;;;;;;39.10;17.40;;;;;;;;;;5005806;28;20168;-78
2024/01/11 02:24:44;;;;;;;43.45;17.88;;;;;;;;;;5005454;28;20242;-79
2024/01/11 02:27:10;;;;;;;36.28;18.98;;;;;;;;;;5005836;28;20186;-78
2024/01/11 02:29:36;;;;;;;35.67;19.35;;;;;;;;;;5005726;28;20167;-78
2024/01/11 02:32:03;;;;;;;46.67;19.67;;;;;;;;;;5006091;28;20519;-79
2024/01/11 02:34:29;;;;;;;40.25;18.30;;;;;;;;;;5005753;28;20180;-78
2024/01/11 02:36:55;;;;;;;33.63;17.38;;;;;;;;;;5004887;28;20167;-78
2024/01/11 02:39:22;;;;;;;32.33;17.45;;;;;;;;;;5005533;28;20261;-78
2024/01/11 02:41:50;;;;;;;35.72;19.73;;;;;;;;;;5003710;28;20201;-79
2024/01/11 02:44:16;;;;;;;36.17;17.92;;;;;;;;;;5005376;28;20211;-78
2024/01/11 02:46:42;;;;;;;36.67;20.67;;;;;;;;;;5005368;28;20262;-85
2024/01/11 02:49:08;;;;;;;36.72;20.25;;;;;;;;;;5005806;28;20171;-78
2024/01/11 02:51:34;;;;;;;40.28;20.98;;;;;;;;;;5006119;28;20184;-78
2024/01/11 02:54:00;;;;;;;40.92;20.17;;;;;;;;;;5014614;28;20205;-79
2024/01/11 02:56:26;;;;;;;46.63;20.03;;;;;;;;;;5025455;28;20201;-78
2024/01/11 02:58:52;;;;;;;35.28;19.67;;;;;;;;;;5024085;28;20415;-79
2024/01/11 03:01:18;;;;;;;34.40;16.75;;;;;;;;;;5024495;28;20184;-79
2024/01/11 03:03:43;;;;;;;37.37;19.40;;;;;;;;;;5024947;28;20638;-80
2024/01/11 03:06:09;;;;;;;37.20;18.48;;;;;;;;;;5024481;28;20465;-78
2024/01/11 03:08:36;;;;;;;32.67;18.88;;;;;;;;;;5024771;28;20181;-78
2024/01/11 03:11:02;;;;;;;41.00;19.98;;;;;;;;;;5024645;28;20171;-79
2024/01/11 03:13:28;;;;;;;32.28;18.50;;;;;;;;;;5024338;28;20193;-79
2024/01/11 03:15:53;;;;;;;30.35;17.52;;;;;;;;;;5024376;28;20202;-79
2024/01/11 03:18:19;;;;;;;32.60;18.93;;;;;;;;;;5024224;28;20582;-79
2024/01/11 03:20:45;;;;;;;37.70;18.63;;;;;;;;;;5023611;28;20410;-80
2024/01/11 03:23:11;;;;;;;34.58;19.17;;;;;;;;;;5023788;28;20174;-79
2024/01/11 03:25:37;;;;;;;40.63;20.13;;;;;;;;;;5022842;28;20657;-78
2024/01/11 03:28:03;;;;;;;34.27;19.00;;;;;;;;;;5024676;28;20181;-79
2024/01/11 03:30:30;;;;;;;50.55;19.85;;;;;;;;;;5023957;28;20448;-78
2024/01/11 03:32:56;;;;;;;35.80;19.60;;;;;;;;;;5024442;28;20170;-79
2024/01/11 03:35:22;;;;;;;47.47;19.45;;;;;;;;;;5024666;28;20181;-78
2024/01/11 03:37:48;;;;;;;36.92;19.15;;;;;;;;;;5023972;28;20178;-79
2024/01/11 03:40:14;;;;;;;34.03;18.35;;;;;;;;;;5023618;28;20175;-78
2024/01/11 03:42:42;;;;;;;43.30;21.42;;;;;;;;;;5022815;28;20184;-84
2024/01/11 03:45:08;;;;;;;44.65;19.23;;;;;;;;;;4990526;28;20199;-79
2024/01/11 03:47:34;;;;;;;35.58;18.40;;;;;;;;;;5003835;28;20239;-80
2024/01/11 03:50:00;;;;;;;36.65;18.65;;;;;;;;;;4995023;28;20177;-78
2024/01/11 03:52:26;;;;;;;36.17;19.98;;;;;;;;;;4985369;28;20234;-78
2024/01/11 03:54:52;;;;;;;38.40;19.17;;;;;;;;;;4984809;28;20187;-79
2024/01/11 03:57:18;;;;;;;36.97;21.27;;;;;;;;;;4984888;28;20419;-79
2024/01/11 03:59:44;;;;;;;41.28;22.17;;;;;;;;;;4985429;28;20207;-78
2024/01/11 04:02:10;;;;;;;34.03;19.05;;;;;;;;;;4985039;28;20175;-79
2024/01/11 04:04:36;;;;;;;36.50;18.65;;;;;;;;;;4986596;28;20228;-79
2024/01/11 04:07:02;;;;;;;38.28;21.50;;;;;;;;;;5004284;28;20176;-78
2024/01/11 04:09:28;;;;;;;36.22;19.05;;;;;;;;;;4986684;28;20195;-78
2024/01/11 04:11:54;;;;;;;43.22;18.63;;;;;;;;;;4984179;28;20198;-79
2024/01/11 04:14:21;;;;;;;37.50;19.40;;;;;;;;;;4983981;28;20212;-79
2024/01/11 04:16:46;;;;;;;35.78;18.00;;;;;;;;;;4984363;28;20403;-79
2024/01/11 04:19:12;;;;;;;33.25;18.05;;;;;;;;;;4984776;28;20230;-78
2024/01/11 04:21:39;;;;;;;37.78;19.00;;;;;;;;;;4984584;28;20652;-78
2024/01/11 04:24:06;;;;;;;41.47;21.65;;;;;;;;;;4983832;28;20230;-79
2024/01/11 04:26:32;;;;;;;39.50;20.95;;;;;;;;;;4996671;28;20246;-78
2024/01/11 04:28:59;;;;;;;37.75;19.60;;;;;;;;;;5002967;28;20182;-79
2024/01/11 04:31:25;;;;;;;41.83;19.92;;;;;;;;;;5003716;28;20214;-79
2024/01/11 04:33:51;;;;;;;38.72;19.40;;;;;;;;;;5002882;28;20171;-78
2024/01/11 04:36:17;;;;;;;36.45;18.85;;;;;;;;;;5002701;28;20183;-78
2024/01/11 04:38:46;;;;;;;44.33;21.10;;;;;;;;;;5003315;28;20179;-78
2024/01/11 04:41:13;;;;;;;42.63;18.42;;;;;;;;;;5003354;28;20170;-78
2024/01/11 04:43:39;;;;;;;34.75;18.92;;;;;;;;;;5003147;28;20194;-78
2024/01/11 04:46:14;;;;;;;39.03;21.08;;;;;;;;;;5012648;28;20230;-78
2024/01/11 04:48:40;;;;;;;38.53;19.98;;;;;;;;;;5022535;28;20170;-78
2024/01/11 04:51:06;;;;;;;35.10;17.00;;;;;;;;;;5020453;28;20184;-79
2024/01/11 04:53:32;;;;;;;42.65;20.20;;;;;;;;;;5008509;28;20188;-79
2024/01/11 04:55:58;;;;;;;34.30;18.90;;;;;;;;;;5002491;28;20693;-79
2024/01/11 04:58:24;;;;;;;42.23;20.27;;;;;;;;;;5003139;28;20180;-79
2024/01/11 05:00:50;;;;;;;48.20;20.37;;;;;;;;;;5002972;28;20410;-82
2024/01/11 05:03:16;;;;;;;37.40;19.52;;;;;;;;;;5002593;28;20469;-79
2024/01/11 05:05:42;;;;;;;43.05;20.60;;;;;;;;;;5002604;28;20615;-78
2024/01/11 05:08:08;;;;;;;42.60;20.40;;;;;;;;;;5001803;28;20217;-79
2024/01/11 05:10:36;;;;;;;40.53;20.63;;;;;;;;;;5001940;28;20174;-79
2024/01/11 05:13:02;;;;;;;46.97;20.83;;;;;;;;;;5001391;28;20175;-79
2024/01/11 05:15:28;;;;;;;37.10;19.00;;;;;;;;;;5003090;28;20226;-78
2024/01/11 05:17:56;;;;;;;59.87;26.20;;;;;;;;;;5002757;28;20176;-79
2024/01/11 05:20:22;;;;;;;49.40;25.13;;;;;;;;;;5003220;28;20520;-78
2024/01/11 05:22:48;;;;;;;48.00;24.80;;;;;;;;;;5003607;28;20692;-78
2024/01/11 05:25:14;;;;;;;66.25;30.92;;;;;;;;;;5001011;28;20226;-79
2024/01/11 05:27:40;;;;;;;65.90;31.58;;;;;;;;;;5002072;28;20178;-79
2024/01/11 05:30:07;;;;;;;60.67;30.38;;;;;;;;;;4998841;28;20702;-79
2024/01/11 05:32:32;;;;;;;52.10;25.70;;;;;;;;;;5000423;28;20280;-79
2024/01/11 05:34:58;;;;;;;45.55;23.73;;;;;;;;;;5000118;28;20290;-79
2024/01/11 05:37:24;;;;;;;38.28;19.05;;;;;;;;;;5003519;28;20636;-79
2024/01/11 05:39:51;;;;;;;45.38;20.50;;;;;;;;;;5002725;28;20178;-79
2024/01/11 05:42:17;;;;;;;46.08;20.92;;;;;;;;;;5003046;28;20182;-79
2024/01/11 05:44:43;;;;;;;39.58;20.38;;;;;;;;;;5002514;28;20266;-79
2024/01/11 05:47:10;;;;;;;49.40;22.60;;;;;;;;;;5003095;28;20203;-78
2024/01/11 05:49:36;;;;;;;47.08;21.95;;;;;;;;;;5002568;28;20187;-79
2024/01/11 05:52:02;;;;;;;35.60;20.35;;;;;;;;;;5002903;28;20175;-79
2024/01/11 05:54:28;;;;;;;52.40;23.58;;;;;;;;;;5000175;28;20192;-79
2024/01/11 05:56:57;;;;;;;46.03;23.52;;;;;;;;;;4983061;28;20176;-82
2024/01/11 05:59:23;;;;;;;48.92;22.13;;;;;;;;;;4983833;28;20184;-79
2024/01/11 06:01:49;;;;;;;41.47;22.90;;;;;;;;;;4982208;28;20200;-79
2024/01/11 06:04:16;;;;;;;54.15;25.70;;;;;;;;;;4985398;28;20232;-80
2024/01/11 06:06:42;;;;;;;48.20;22.60;;;;;;;;;;5005540;28;20168;-79
2024/01/11 06:09:08;;;;;;;49.28;22.75;;;;;;;;;;5004738;28;20214;-79
2024/01/11 06:11:34;;;;;;;38.65;21.00;;;;;;;;;;5006024;28;20171;-79
2024/01/11 06:14:01;;;;;;;46.55;22.10;;;;;;;;;;5005578;28;20186;-79
2024/01/11 06:16:27;;;;;;;43.60;22.95;;;;;;;;;;5004752;28;20174;-79
2024/01/11 06:18:53;;;;;;;41.70;21.77;;;;;;;;;;4986569;28;20213;-79
2024/01/11 06:21:19;;;;;;;42.38;21.15;;;;;;;;;;4986211;28;20176;-80
2024/01/11 06:23:45;;;;;;;40.40;21.38;;;;;;;;;;4986938;28;20193;-79
2024/01/11 06:26:11;;;;;;;36.38;20.10;;;;;;;;;;4986963;28;20195;-79
2024/01/11 06:28:37;;;;;;;39.10;21.02;;;;;;;;;;4986512;28;20175;-79
2024/01/11 06:31:03;;;;;;;45.22;20.85;;;;;;;;;;4999900;28;20238;-79
2024/01/11 06:33:29;;;;;;;37.75;21.13;;;;;;;;;;5005804;28;20171;-79
2024/01/11 06:35:55;;;;;;;39.25;20.23;;;;;;;;;;5005431;28;20623;-87
2024/01/11 06:38:22;;;;;;;43.35;22.38;;;;;;;;;;5005554;28;20272;-79
2024/01/11 06:40:48;;;;;;;47.63;22.00;;;;;;;;;;5005340;28;20183;-79
2024/01/11 06:43:14;;;;;;;43.20;22.02;;;;;;;;;;5005651;28;20185;-79
2024/01/11 06:45:41;;;;;;;38.45;22.38;;;;;;;;;;5005485;28;20223;-79
2024/01/11 06:48:07;;;;;;;55.78;21.88;;;;;;;;;;5005852;28;20179;-80
2024/01/11 06:50:33;;;;;;;42.95;22.65;;;;;;;;;;5025716;28;20175;-79
2024/01/11 06:53:00;;;;;;;51.10;23.48;;;;;;;;;;5024921;28;20214;-80
2024/01/11 06:55:26;;;;;;;44.22;24.60;;;;;;;;;;5025163;28;20245;-79
2024/01/11 06:57:52;;;;;;;41.55;20.65;;;;;;;;;;5024698;28;20205;-79
2024/01/11 07:00:18;;;;;;;42.42;22.40;;;;;;;;;;5023945;28;20225;-80
2024/01/11 07:02:44;;;;;;;45.20;21.25;;;;;;;;;;5024385;28;20206;-80
2024/01/11 07:05:10;;;;;;;35.83;21.30;;;;;;;;;;5023996;28;20237;-80
2024/01/11 07:07:36;;;;;;;40.75;22.08;;;;;;;;;;5025071;28;20180;-79
2024/01/11 07:10:01;;;;;;;43.33;21.48;;;;;;;;;;5024839;28;20207;-81
2024/01/11 07:12:27;;;;;;;43.92;22.75;;;;;;;;;;5025122;28;20185;-80
2024/01/11 07:14:53;;;;;;;37.45;21.27;;;;;;;;;;5024231;28;20272;-79
2024/01/11 07:17:19;;;;;;;44.85;21.52;;;;;;;;;;5021060;28;20183;-80
2024/01/11 07:19:45;;;;;;;40.03;20.60;;;;;;;;;;5004490;28;20191;-80
2024/01/11 07:22:11;;;;;;;56.80;24.85;;;;;;;;;;5004894;28;20193;-80
2024/01/11 07:24:37;;;;;;;50.50;25.45;;;;;;;;;;5005041;28;20238;-79
2024/01/11 07:27:07;;;;;;;41.17;21.20;;;;;;;;;;5004086;28;20183;-80
2024/01/11 07:29:36;;;;;;;45.63;23.42;;;;;;;;;;5002520;28;20171;-79
2024/01/11 07:32:03;;;;;;;51.65;24.20;;;;;;;;;;5004022;28;20647;-81
2024/01/11 07:34:29;;;;;;;56.78;24.17;;;;;;;;;;5004345;28;20187;-80
2024/01/11 07:36:56;;;;;;;52.58;23.98;;;;;;;;;;5004266;28;20178;-80
2024/01/11 07:39:22;;;;;;;39.90;21.80;;;;;;;;;;5004171;28;20181;-80
2024/01/11 07:41:48;;;;;;;53.10;25.50;;;;;;;;;;5004737;28;20269;-80
2024/01/11 07:44:14;;;;;;;42.88;22.80;;;;;;;;;;5001291;28;20604;-80
2024/01/11 07:46:40;;;;;;;42.22;22.02;;;;;;;;;;5000890;28;20237;-80
2024/01/11 07:49:06;;;;;;;37.90;21.95;;;;;;;;;;5004384;28;20255;-79
2024/01/11 07:51:34;;;;;;;58.85;24.92;;;;;;;;;;5002430;28;20179;-80
2024/01/11 07:54:00;;;;;;;42.17;20.55;;;;;;;;;;4984275;28;20183;-88
2024/01/11 07:56:26;;;;;;;40.10;19.83;;;;;;;;;;4985021;28;20218;-80
2024/01/11 07:58:52;;;;;;;43.92;23.23;;;;;;;;;;4996230;28;20191;-80
2024/01/11 08:01:18;;;;;;;52.75;24.15;;;;;;;;;;5004020;28;20197;-80
2024/01/11 08:03:45;;;;;;;43.72;22.73;;;;;;;;;;5004747;28;20227;-79
2024/01/11 08:06:11;;;;;;;41.88;23.25;;;;;;;;;;5003827;28;20236;-80
2024/01/11 08:08:40;;;;;;;39.55;22.70;;;;;;;;;;5004601;28;20202;-80
2024/01/11 08:11:09;;;;;;;48.65;23.50;;;;;;;;;;5003624;28;20245;-80
2024/01/11 08:13:35;;;;;;;42.78;23.65;;;;;;;;;;4994746;28;20551;-81
2024/01/11 08:16:04;;;;;;;49.22;24.05;;;;;;;;;;5001157;28;20187;-80
2024/01/11 08:18:33;;;;;;;41.65;21.65;;;;;;;;;;5004570;28;20182;-80
2024/01/11 08:20:59;;;;;;;45.47;22.17;;;;;;;;;;5004426;28;20236;-80
2024/01/11 08:23:25;;;;;;;57.90;24.13;;;;;;;;;;5004158;28;20181;-80
2024/01/11 08:25:52;;;;;;;35.45;21.50;;;;;;;;;;5003903;28;20219;-80
2024/01/11 08:28:18;;;;;;;38.70;22.83;;;;;;;;;;5004784;28;20171;-80
2024/01/11 08:30:44;;;;;;;38.35;22.77;;;;;;;;;;5003594;28;20175;-80
2024/01/11 08:33:10;;;;;;;35.80;22.73;;;;;;;;;;5004415;28;20174;-80
2024/01/11 08:35:36;;;;;;;48.35;24.13;;;;;;;;;;5003924;28;20192;-80
2024/01/11 08:38:03;;;;;;;53.60;25.73;;;;;;;;;;5004691;28;20199;-80
2024/01/11 08:40:28;;;;;;;44.22;24.20;;;;;;;;;;5004466;28;20231;-80
2024/01/11 08:42:55;;;;;;;57.05;25.85;;;;;;;;;;5001671;28;20228;-80
2024/01/11 08:45:22;;;;;;;62.88;25.33;;;;;;;;;;4983829;28;20231;-80
2024/01/11 08:47:48;;;;;;;41.38;22.42;;;;;;;;;;4993472;28;20187;-79
2024/01/11 08:50:15;;;;;;;47.75;23.60;;;;;;;;;;5004065;28;20209;-80
2024/01/11 08:52:41;;;;;;;48.45;24.63;;;;;;;;;;5004662;28;20205;-80
2024/01/11 08:55:07;;;;;;;56.45;26.17;;;;;;;;;;5004837;28;20537;-80
2024/01/11 08:57:35;;;;;;;45.85;28.33;;;;;;;;;;5004000;28;20186;-79
2024/01/11 09:00:02;;;;;;;51.10;26.83;;;;;;;;;;5004581;28;20182;-79
2024/01/11 09:02:28;;;;;;;46.08;25.65;;;;;;;;;;5004621;28;20180;-80
2024/01/11 09:04:54;;;;;;;52.10;25.10;;;;;;;;;;5003714;28;20662;-79
2024/01/11 09:07:19;;;;;;;59.70;27.10;;;;;;;;;;5003128;28;20823;-80
2024/01/11 09:09:46;;;;;;;54.22;27.15;;;;;;;;;;5002916;28;20194;-79
2024/01/11 09:12:12;;;;;;;70.60;30.35;;;;;;;;;;5004503;28;20183;-80
2024/01/11 09:14:39;;;;;;;61.20;27.17;;;;;;;;;;5005039;28;20194;-80
2024/01/11 09:17:06;;;;;;;55.90;29.35;;;;;;;;;;5004709;28;20174;-86
2024/01/11 09:19:37;;;;;;;73.15;34.72;;;;;;;;;;5005458;28;20194;-79
2024/01/11 09:22:03;;;;;;;55.78;29.25;;;;;;;;;;5004401;28;20158;-79
2024/01/11 09:24:29;;;;;;;61.08;29.33;;;;;;;;;;5003854;28;20297;-79
2024/01/11 09:26:55;;;;;;;71.75;34.80;;;;;;;;;;5005979;28;20187;-79
2024/01/11 09:29:21;;;;;;;67.40;31.33;;;;;;;;;;5005248;28;20179;-79
2024/01/11 09:31:47;;;;;;;60.47;30.17;;;;;;;;;;5006065;28;20175;-79
2024/01/11 09:34:13;;;;;;;70.00;32.67;;;;;;;;;;5005898;28;20179;-79
2024/01/11 09:36:39;;;;;;;59.80;30.45;;;;;;;;;;5006807;28;20211;-80
2024/01/11 09:39:05;;;;;;;70.35;32.50;;;;;;;;;;5010307;28;20176;-79
2024/01/11 09:41:32;;;;;;;57.60;30.80;;;;;;;;;;5009413;28;20254;-79
2024/01/11 09:44:01;;;;;;;63.38;31.55;;;;;;;;;;5007914;28;20179;-79
2024/01/11 09:46:28;;;;;;;62.88;29.50;;;;;;;;;;5007793;28;20195;-79
2024/01/11 09:48:54;;;;;;;66.43;30.67;;;;;;;;;;5008993;28;20183;-79
2024/01/11 09:51:20;;;;;;;52.75;29.63;;;;;;;;;;5009757;28;20199;-79
2024/01/11 09:53:47;;;;;;;64.38;32.42;;;;;;;;;;5007880;28;20183;-80
2024/01/11 09:56:13;;;;;;;75.25;35.28;;;;;;;;;;5007981;28;20269;-79
2024/01/11 09:58:42;;;;;;;76.88;34.50;;;;;;;;;;5011600;28;20178;-79
2024/01/11 10:01:12;;;;;;;60.92;33.55;;;;;;;;;;5008464;28;20195;-81
2024/01/11 10:03:39;;;;;;;70.45;35.08;;;;;;;;;;5009039;28;20219;-79
2024/01/11 10:06:07;;;;;;;63.75;32.88;;;;;;;;;;5009053;28;20214;-78
2024/01/11 10:08:33;;;;;;;69.32;28.92;;;;;;;;;;5010050;28;20176;-78
2024/01/11 10:10:59;;;;;;;66.47;31.33;;;;;;;;;;5009737;28;20167;-78
2024/01/11 10:13:29;;;;;;;57.50;30.65;;;;;;;;;;5010157;28;20209;-79
2024/01/11 10:16:24;;;;;;;64.35;36.75;;;;;;;;;;5009666;28;20196;-78
2024/01/11 10:18:53;;;;;;;63.97;32.17;;;;;;;;;;4994544;28;20199;-79
2024/01/11 10:21:19;;;;;;;53.92;30.58;;;;;;;;;;5010301;28;20256;-79
2024/01/11 10:23:45;;;;;;;56.57;29.37;;;;;;;;;;5009221;28;20187;-79
2024/01/11 10:26:11;;;;;;;62.33;32.50;;;;;;;;;;5009772;28;20472;-79
2024/01/11 10:28:37;;;;;;;50.10;29.40;;;;;;;;;;5011202;28;20179;-79
2024/01/11 10:31:07;;;;;;;64.90;32.85;;;;;;;;;;5009974;28;20190;-79
2024/01/11 10:33:34;;;;;;;54.53;29.85;;;;;;;;;;5010712;28;20174;-79
2024/01/11 10:36:00;;;;;;;56.50;29.88;;;;;;;;;;5010353;28;20239;-79
2024/01/11 10:38:27;;;;;;;58.65;31.17;;;;;;;;;;5009336;28;20176;-79
2024/01/11 10:40:54;;;;;;;54.65;28.92;;;;;;;;;;5008366;28;20207;-79
2024/01/11 10:43:21;;;;;;;48.40;28.98;;;;;;;;;;5008229;28;20579;-79
2024/01/11 10:45:53;;;;;;;57.60;30.15;;;;;;;;;;5008225;28;20218;-80
2024/01/11 10:48:22;;;;;;;44.97;26.90;;;;;;;;;;5006748;28;20180;-79
2024/01/11 10:50:50;;;;;;;47.10;26.00;;;;;;;;;;5008061;28;20174;-79
2024/01/11 10:53:34;;;;;;;54.80;25.05;;;;;;;;;;5007124;28;20188;-79
2024/01/11 10:56:02;;;;;;;43.33;25.35;;;;;;;;;;5008787;28;20186;-79
2024/01/11 10:58:29;;;;;;;48.63;25.27;;;;;;;;;;5008199;28;20623;-79
2024/01/11 11:00:55;;;;;;;47.10;26.45;;;;;;;;;;5007831;28;20653;-79
2024/01/11 11:03:24;;;;;;;43.60;25.17;;;;;;;;;;5007125;28;20729;-79
2024/01/11 11:05:50;;;;;;;44.40;25.17;;;;;;;;;;5006418;28;20289;-79
2024/01/11 11:08:18;;;;;;;45.05;25.75;;;;;;;;;;5005558;28;20187;-79
2024/01/11 11:10:46;;;;;;;44.75;26.38;;;;;;;;;;5004735;28;20640;-79
2024/01/11 11:13:14;;;;;;;43.53;25.23;;;;;;;;;;5006099;28;20202;-86
2024/01/11 11:15:41;;;;;;;46.53;27.65;;;;;;;;;;5005363;28;20241;-79
2024/01/11 11:18:07;;;;;;;42.38;23.08;;;;;;;;;;5004995;28;20183;-79
2024/01/11 11:20:33;;;;;;;57.35;28.65;;;;;;;;;;5005852;28;20213;-79
2024/01/11 11:23:06;;;;;;;40.55;23.60;;;;;;;;;;5005405;28;20187;-79
2024/01/11 11:25:32;;;;;;;43.47;23.90;;;;;;;;;;5004919;28;20202;-79
2024/01/11 11:28:00;;;;;;;44.35;24.80;;;;;;;;;;5010046;28;20167;-78
2024/01/11 11:30:26;;;;;;;46.75;24.02;;;;;;;;;;5009566;28;20210;-78
2024/01/11 11:32:53;;;;;;;43.42;24.10;;;;;;;;;;5006011;28;20185;-79
2024/01/11 11:35:18;;;;;;;42.53;25.67;;;;;;;;;;5005586;28;20187;-79
2024/01/11 11:37:44;;;;;;;43.28;23.85;;;;;;;;;;5005722;28;20190;-78
2024/01/11 11:40:11;;;;;;;39.85;23.48;;;;;;;;;;5005668;28;20206;-78
2024/01/11 11:42:37;;;;;;;40.88;23.60;;;;;;;;;;5005255;28;20171;-78
2024/01/11 11:45:03;;;;;;;46.33;24.17;;;;;;;;;;5005162;28;20626;-78
2024/01/11 11:47:38;;;;;;;49.60;26.15;;;;;;;;;;5005227;28;20191;-78
2024/01/11 11:50:04;;;;;;;45.03;24.77;;;;;;;;;;5005239;28;20221;-78
2024/01/11 11:52:31;;;;;;;39.22;22.88;;;;;;;;;;5004460;28;20180;-79
2024/01/11 11:54:57;;;;;;;47.28;24.77;;;;;;;;;;5006012;28;20264;-77
2024/01/11 11:57:24;;;;;;;44.92;24.30;;;;;;;;;;5005354;28;20215;-79
2024/01/11 11:59:50;;;;;;;46.88;25.35;;;;;;;;;;5007285;28;20189;-78
2024/01/11 12:02:17;;;;;;;40.42;25.52;;;;;;;;;;5004484;28;20184;-77
2024/01/11 12:04:48;;;;;;;45.17;27.50;;;;;;;;;;5005792;28;20286;-76
2024/01/11 12:07:14;;;;;;;46.10;24.48;;;;;;;;;;5006938;28;20174;-77
2024/01/11 12:09:40;;;;;;;54.13;25.33;;;;;;;;;;5006993;28;20189;-76
2024/01/11 12:12:07;;;;;;;44.60;24.08;;;;;;;;;;5006915;28;20210;-77
2024/01/11 12:14:33;;;;;;;45.63;26.45;;;;;;;;;;5006021;28;20584;-77
2024/01/11 12:16:59;;;;;;;38.38;24.90;;;;;;;;;;5007224;28;20183;-77
2024/01/11 12:19:25;;;;;;;40.58;24.92;;;;;;;;;;5006758;28;20238;-78
2024/01/11 12:21:51;;;;;;;40.50;23.73;;;;;;;;;;5005556;28;20178;-77
2024/01/11 12:24:17;;;;;;;47.20;23.47;;;;;;;;;;5007211;28;20187;-79
2024/01/11 12:26:44;;;;;;;36.03;22.48;;;;;;;;;;5006377;28;20387;-76
2024/01/11 12:29:10;;;;;;;39.58;23.13;;;;;;;;;;5005833;28;20186;-77
2024/01/11 12:31:36;;;;;;;38.00;22.33;;;;;;;;;;5006132;28;20183;-77
2024/01/11 12:34:03;;;;;;;45.90;24.70;;;;;;;;;;5006198;28;20187;-76
2024/01/11 12:36:29;;;;;;;43.60;23.55;;;;;;;;;;5006669;28;20230;-77
2024/01/11 12:38:55;;;;;;;36.10;22.90;;;;;;;;;;5006361;28;20298;-77
2024/01/11 12:41:24;;;;;;;40.92;23.10;;;;;;;;;;5007026;28;20630;-77
2024/01/11 12:43:50;;;;;;;35.10;23.08;;;;;;;;;;5004468;28;20304;-78
2024/01/11 12:46:17;;;;;;;42.28;23.85;;;;;;;;;;4996815;28;20232;-76
2024/01/11 12:48:43;;;;;;;40.22;23.02;;;;;;;;;;4986106;28;20252;-77
2024/01/11 12:51:09;;;;;;;36.85;23.85;;;;;;;;;;5024436;28;20174;-77
2024/01/11 12:53:36;;;;;;;44.35;24.50;;;;;;;;;;4992657;28;20184;-77
2024/01/11 12:56:03;;;;;;;44.40;21.65;;;;;;;;;;4986252;28;20182;-77
2024/01/11 12:58:29;;;;;;;46.53;24.83;;;;;;;;;;4985774;28;20178;-77
2024/01/11 13:00:57;;;;;;;54.50;24.25;;;;;;;;;;4985755;28;20179;-77
2024/01/11 13:03:23;;;;;;;46.13;26.35;;;;;;;;;;4986123;28;20250;-78
2024/01/11 13:05:49;;;;;;;52.10;25.77;;;;;;;;;;4986543;28;20203;-77
2024/01/11 13:08:15;;;;;;;45.50;27.20;;;;;;;;;;4987067;28;20652;-77
2024/01/11 13:10:41;;;;;;;47.63;27.00;;;;;;;;;;4985968;28;20188;-78
2024/01/11 13:13:08;;;;;;;48.05;27.48;;;;;;;;;;4991788;28;20189;-78
2024/01/11 13:15:34;;;;;;;47.70;26.50;;;;;;;;;;5007878;28;20732;-78
2024/01/11 13:18:03;;;;;;;47.00;24.67;;;;;;;;;;4992721;28;20179;-78
2024/01/11 13:20:29;;;;;;;50.72;26.15;;;;;;;;;;4992010;28;20406;-78
2024/01/11 13:23:13;;;;;;;47.50;25.33;;;;;;;;;;4992271;28;20179;-78
2024/01/11 13:25:40;;;;;;;41.70;25.23;;;;;;;;;;4993168;28;20221;-78
2024/01/11 13:28:06;;;;;;;50.88;29.52;;;;;;;;;;4992781;28;20270;-78
2024/01/11 13:30:32;;;;;;;41.33;26.13;;;;;;;;;;4994595;28;20186;-78
2024/01/11 13:32:59;;;;;;;46.63;27.25;;;;;;;;;;5011832;28;20964;-78
2024/01/11 13:35:25;;;;;;;48.33;26.48;;;;;;;;;;5012517;28;20238;-78
2024/01/11 13:37:51;;;;;;;45.67;25.63;;;;;;;;;;5011448;28;20187;-78
2024/01/11 13:40:17;;;;;;;41.38;25.58;;;;;;;;;;5011138;28;20522;-78
2024/01/11 13:42:44;;;;;;;46.15;25.48;;;;;;;;;;5010582;28;20237;-78
2024/01/11 13:45:10;;;;;;;38.77;24.27;;;;;;;;;;5011909;28;20241;-78
2024/01/11 13:47:36;;;;;;;46.88;25.23;;;;;;;;;;5011120;28;20416;-78
2024/01/11 13:50:03;;;;;;;40.38;24.45;;;;;;;;;;5011797;28;20274;-78
2024/01/11 13:52:29;;;;;;;42.53;25.50;;;;;;;;;;5011148;28;20179;-78
2024/01/11 13:54:55;;;;;;;45.80;26.57;;;;;;;;;;5010566;28;20190;-78
2024/01/11 13:57:21;;;;;;;47.22;25.30;;;;;;;;;;4997171;28;20415;-78
2024/01/11 13:59:47;;;;;;;50.55;26.73;;;;;;;;;;4990698;28;20176;-78
2024/01/11 14:02:13;;;;;;;42.15;24.02;;;;;;;;;;4990537;28;20195;-78
2024/01/11 14:04:39;;;;;;;43.28;25.35;;;;;;;;;;4990325;28;20310;-78
2024/01/11 14:07:06;;;;;;;40.33;21.63;;;;;;;;;;4989891;28;20199;-78
2024/01/11 14:09:32;;;;;;;44.33;23.55;;;;;;;;;;4990436;28;20267;-79
2024/01/11 14:11:58;;;;;;;42.33;23.47;;;;;;;;;;4990379;28;20172;-78